METAR Data
IDs: Format: Raw Decoded Include TAF

Data at: 1802 UTC 07 Dec 2021

K3S8 071755Z AUTO 00000KT 3SM BR OVC004 07/06 A3015 RMK AO2
K3S8 071735Z AUTO 00000KT 2SM BR OVC003 07/06 A3014 RMK AO2
K3S8 071715Z AUTO 00000KT 2SM BR OVC003 06/06 A3015 RMK AO2
K3S8 071655Z AUTO 00000KT 3/4SM BR OVC002 06/06 A3014 RMK AO2
K3S8 071635Z AUTO 34003KT 1 1/2SM BR OVC002 06/06 A3014 RMK AO2
K3S8 071615Z AUTO 00000KT 1 3/4SM BR OVC002 06/06 A3013 RMK AO2
K3S8 071555Z AUTO 00000KT 1/2SM BR OVC002 06/06 A3012 RMK AO2
K3S8 071535Z AUTO 00000KT 3SM BR OVC003 06/06 A3011 RMK AO2
K3S8 071515Z AUTO 00000KT 3SM BR OVC004 06/06 A3011 RMK AO2
K3S8 071455Z AUTO 00000KT 2 1/2SM BR OVC004 06/06 A3011 RMK AO2
K3S8 071435Z AUTO 00000KT 2 1/2SM BR OVC005 06/06 A3010 RMK AO2
K3S8 071415Z AUTO 00000KT 3SM BR OVC004 06/06 A3010 RMK AO2
K3S8 071355Z AUTO 00000KT 3SM BR OVC004 06/06 A3010 RMK AO2
K3S8 071335Z AUTO 00000KT 5SM BR OVC005 06/06 A3009 RMK AO2
K3S8 071315Z AUTO 00000KT 6SM BR OVC007 06/06 A3010 RMK AO2
K3S8 071255Z AUTO 00000KT 4SM BR SCT002 OVC007 06/05 A3009 RMK AO2
K3S8 071235Z AUTO 00000KT 2 1/2SM BR OVC002 06/05 A3009 RMK AO2
K3S8 071215Z AUTO 00000KT 2SM BR 06/05 A3008 RMK AO2
K3S8 071155Z AUTO 00000KT 4SM BR 06/06 A3008 RMK AO2
K3S8 071135Z AUTO 00000KT 4SM BR FEW002 OVC009 06/05 A3008 RMK AO2
K3S8 071115Z AUTO 00000KT 5SM BR OVC009 06/05 A3008 RMK AO2
K3S8 071055Z AUTO 00000KT 4SM BR OVC010 06/05 A3009 RMK AO2
K3S8 071035Z AUTO 00000KT 1 1/4SM BR BKN002 OVC010 06/05 A3009 RMK AO2
K3S8 071015Z AUTO 00000KT 1/2SM FG OVC002 06/05 A3008 RMK AO2
K3S8 070955Z AUTO 00000KT 1/2SM BR OVC002 06/05 A3008 RMK AO2
K3S8 070935Z AUTO 00000KT 1SM BR OVC002 06/05 A3008 RMK AO2
K3S8 070915Z AUTO 00000KT 1SM BR BKN002 OVC013 05/05 A3006 RMK AO2
K3S8 070855Z AUTO 00000KT 1 1/4SM BR BKN003 OVC014 05/05 A3007 RMK AO2
K3S8 070835Z AUTO 00000KT 4SM BR BKN003 BKN008 OVC016 06/05 A3008 RMK AO2
K3S8 070815Z AUTO 00000KT 3SM BR SCT002 BKN008 OVC017 06/05 A3007 RMK AO2
K3S8 070755Z AUTO 00000KT 2 1/2SM BR BKN002 BKN007 OVC016 06/05 A3008 RMK AO2
K3S8 070735Z AUTO 00000KT 5SM BR FEW002 OVC007 06/05 A3008 RMK AO2
K3S8 070715Z AUTO 00000KT 3SM BR BKN008 BKN060 OVC075 06/05 A3008 RMK AO2
K3S8 070655Z AUTO 00000KT 4SM -RA FEW033 BKN060 OVC075 06/05 A3007 RMK AO2 P0002
K3S8 070635Z AUTO 00000KT 2 1/2SM -RA SCT010 BKN032 OVC055 06/05 A3008 RMK AO2
K3S8 070615Z AUTO 00000KT 6SM BR BKN010 OVC027 06/05 A3008 RMK AO2
K3S8 070555Z AUTO 00000KT 7SM SCT005 BKN012 OVC032 06/05 A3008 RMK AO2 P0001
K3S8 070535Z AUTO 00000KT 4SM -UP BKN003 OVC006 06/05 A3008 RMK AO2
K3S8 070515Z AUTO 00000KT 3SM BR 06/05 A3008 RMK AO2
K3S8 070455Z AUTO 00000KT 4SM BR OVC005 06/05 A3007 RMK AO2 P0003
K3S8 070435Z AUTO 35004KT 4SM -RA OVC004 06/05 A3007 RMK AO2
K3S8 070415Z AUTO 00000KT 3SM BR BKN003 BKN008 OVC024 06/05 A3007 RMK AO2
K3S8 070355Z AUTO 00000KT 3SM -RA BKN008 OVC024 06/05 A3007 RMK AO2 P0005
K3S8 070335Z AUTO 00000KT 3SM -RA OVC008 06/05 A3008 RMK AO2
K3S8 070315Z AUTO 00000KT 4SM -RA OVC009 06/05 A3009 RMK AO2
K3S8 070255Z AUTO 00000KT 3SM -RA BKN010 BKN030 OVC036 06/05 A3010 RMK AO2 P0011
K3S8 070235Z AUTO 00000KT 4SM -RA BKN012 OVC032 06/05 A3011 RMK AO2
K3S8 070215Z AUTO 00000KT 3SM -RA FEW004 OVC012 06/05 A3011 RMK AO2
K3S8 070155Z AUTO 00000KT 5SM -RA BKN011 OVC037 06/05 A3011 RMK AO2 P0002
K3S8 070135Z AUTO 00000KT 6SM -RA 06/05 A3010 RMK AO2
K3S8 070115Z AUTO 00000KT 7SM -RA BKN011 BKN030 OVC037 06/05 A3010 RMK AO2
K3S8 070055Z AUTO 00000KT 10SM BKN009 BKN012 OVC038 06/05 A3010 RMK AO2
K3S8 070035Z AUTO 00000KT 8SM BKN008 OVC039 06/05 A3010 RMK AO2
K3S8 070015Z AUTO 00000KT 10SM BKN009 OVC038 06/05 A3011 RMK AO2
K3S8 062355Z AUTO 00000KT 8SM FEW005 BKN010 OVC038 06/05 A3011 RMK AO2
K3S8 062335Z AUTO 00000KT 7SM FEW006 FEW011 OVC039 06/05 A3011 RMK AO2
K3S8 062315Z AUTO 00000KT 9SM SCT006 SCT011 OVC040 06/05 A3011 RMK AO2
K3S8 062255Z AUTO 00000KT 10SM BKN007 OVC040 06/05 A3012 RMK AO2
K3S8 062235Z AUTO 00000KT 10SM OVC007 06/05 A3013 RMK AO2
K3S8 062215Z AUTO 00000KT 10SM BKN007 OVC041 06/05 A3012 RMK AO2
K3S8 062155Z AUTO 00000KT 10SM BKN006 OVC041 06/05 A3013 RMK AO2
K3S8 062135Z AUTO 00000KT 10SM BKN007 OVC041 06/05 A3013 RMK AO2
K3S8 062115Z AUTO 00000KT 10SM SCT005 OVC042 06/05 A3015 RMK AO2
K3S8 062055Z AUTO 00000KT 10SM FEW006 OVC041 06/05 A3015 RMK AO2 P0001
K3S8 062035Z AUTO 00000KT 10SM FEW008 BKN041 06/05 A3016 RMK AO2
K3S8 062015Z AUTO 00000KT 10SM BKN007 06/04 A3017 RMK AO2
K3S8 061955Z AUTO 00000KT 10SM BKN007 BKN012 05/04 A3019 RMK AO2
K3S8 061935Z AUTO 00000KT 9SM -RA BKN011 OVC047 06/04 A3020 RMK AO2
K3S8 061915Z AUTO 00000KT 10SM BKN008 BKN012 OVC047 05/04 A3021 RMK AO2
K3S8 061855Z AUTO 00000KT 10SM OVC007 05/04 A3021 RMK AO2
K3S8 061835Z AUTO 00000KT 10SM OVC005 05/04 A3023 RMK AO2
K3S8 061815Z AUTO 00000KT 10SM BKN005 BKN013 OVC055 05/04 A3024 RMK AO2
K3S8 061755Z AUTO 00000KT 10SM FEW006 FEW015 OVC055 05/04 A3024 RMK AO2
K3S8 061735Z AUTO 00000KT 10SM SCT005 BKN055 OVC070 05/04 A3025 RMK AO2
K3S8 061715Z AUTO 00000KT 10SM FEW005 SCT015 BKN060 05/04 A3026 RMK AO2
K3S8 061655Z AUTO 00000KT 9SM SCT005 BKN013 OVC060 05/04 A3025 RMK AO2
K3S8 061635Z AUTO 00000KT 9SM OVC004 04/04 A3025 RMK AO2
K3S8 061615Z AUTO 00000KT 10SM OVC004 04/04 A3025 RMK AO2
K3S8 061555Z AUTO 00000KT 8SM BKN004 OVC007 04/04 A3025 RMK AO2
K3S8 061535Z AUTO 00000KT 6SM BR SCT005 BKN013 OVC070 04/04 A3025 RMK AO2
K3S8 061515Z AUTO 00000KT 6SM BR FEW003 SCT012 BKN049 04/04 A3026 RMK AO2
K3S8 061455Z AUTO 00000KT 4SM -UP OVC003 04/04 A3026 RMK AO2
K3S8 061435Z AUTO 00000KT 1 1/2SM BR OVC002 04/04 A3027 RMK AO2
K3S8 061415Z AUTO 13003KT 2SM BR OVC002 04/04 A3028 RMK AO2
K3S8 061355Z AUTO 00000KT 1 3/4SM BR OVC002 04/04 A3027 RMK AO2
K3S8 061335Z AUTO 32004KT 1/4SM FG OVC002 04/04 A3029 RMK AO2
K3S8 061315Z AUTO 00000KT 1/4SM FG OVC002 04/04 A3028 RMK AO2
K3S8 061255Z AUTO 00000KT 1/2SM FG OVC002 04/04 A3031 RMK AO2
K3S8 061235Z AUTO 00000KT 1/2SM FG OVC002 04/04 A3030 RMK AO2
K3S8 061215Z AUTO 00000KT 3/4SM BR OVC002 04/04 A3030 RMK AO2
K3S8 061155Z AUTO 00000KT 3/4SM BR OVC002 04/04 A3030 RMK AO2
K3S8 061135Z AUTO 00000KT 3/4SM BR OVC002 04/04 A3031 RMK AO2
K3S8 061115Z AUTO 05006KT 1/2SM BR OVC002 04/04 A3032 RMK AO2
K3S8 061055Z AUTO 00000KT 2 1/2SM BR OVC003 04/04 A3034 RMK AO2
K3S8 061035Z AUTO 00000KT 5SM BR OVC003 04/04 A3032 RMK AO2
K3S8 061015Z AUTO 00000KT 4SM BR OVC003 04/04 A3033 RMK AO2
K3S8 060955Z AUTO 00000KT 6SM BR OVC003 04/04 A3033 RMK AO2
K3S8 060935Z AUTO 00000KT 5SM BR OVC003 04/04 A3034 RMK AO2
K3S8 060915Z AUTO 00000KT 5SM BR OVC003 04/04 A3035 RMK AO2
K3S8 060855Z AUTO 00000KT 3SM BR OVC003 04/04 A3035 RMK AO2
K3S8 060835Z AUTO 00000KT 2 1/2SM BR OVC003 04/04 A3038 RMK AO2
K3S8 060815Z AUTO 00000KT 1SM BR OVC002 04/04 A3039 RMK AO2
K3S8 060755Z AUTO 00000KT 1 1/4SM BR OVC002 04/04 A3039 RMK AO2
K3S8 060735Z AUTO 00000KT 1 3/4SM BR OVC003 04/04 A3040 RMK AO2
K3S8 060715Z AUTO 00000KT 2SM BR OVC002 04/04 A3040 RMK AO2
K3S8 060655Z AUTO 00000KT 1 1/4SM BR OVC002 04/04 A3040 RMK AO2
K3S8 060635Z AUTO 00000KT 1/2SM BR OVC002 04/04 A3041 RMK AO2
K3S8 060615Z AUTO 30003KT 1/2SM BR OVC002 04/04 A3041 RMK AO2